createdAt,value
2019-04-25T00:02:21.306Z,2.30
2019-04-25T00:04:51.537Z,3.10
2019-04-25T00:07:22.513Z,3.97
2019-04-25T00:09:55.924Z,4.00
2019-04-25T00:12:25.815Z,2.60
2019-04-25T00:14:55.106Z,2.37
2019-04-25T00:17:25.330Z,2.10
2019-04-25T00:19:54.621Z,2.80
2019-04-25T00:22:42.869Z,2.13
2019-04-25T00:25:32.354Z,4.67
2019-04-25T00:28:01.860Z,2.60
2019-04-25T00:30:32.893Z,3.43
2019-04-25T00:33:02.228Z,2.77
2019-04-25T00:35:31.617Z,3.90
2019-04-25T00:38:02.360Z,3.77
2019-04-25T00:40:31.980Z,5.57
2019-04-25T00:43:01.660Z,2.80
2019-04-25T00:45:31.687Z,2.97
2019-04-25T00:48:02.429Z,3.60
2019-04-25T00:50:32.575Z,4.77
2019-04-25T00:53:02.986Z,3.33
2019-04-25T00:55:32.350Z,7.53
2019-04-25T00:58:31.424Z,6.47
2019-04-25T01:01:28.524Z,11.67
2019-04-25T01:03:57.952Z,7.53
2019-04-25T01:06:27.243Z,6.53
2019-04-25T01:08:56.526Z,7.30
2019-04-25T01:11:26.260Z,10.23
2019-04-25T01:13:55.531Z,5.20
2019-04-25T01:16:24.882Z,7.00
2019-04-25T01:18:54.804Z,4.80
2019-04-25T01:21:25.326Z,3.20
2019-04-25T01:23:55.697Z,4.77
2019-04-25T01:26:25.328Z,3.40
2019-04-25T01:28:54.986Z,2.07
2019-04-25T01:31:26.140Z,3.37
2019-04-25T01:33:55.647Z,1.97
2019-04-25T01:36:50.703Z,7.60
2019-04-25T01:39:37.921Z,5.57
2019-04-25T01:42:24.971Z,4.73
2019-04-25T01:44:56.908Z,5.53
2019-04-25T01:47:27.083Z,4.50
2019-04-25T01:49:56.689Z,3.80
2019-04-25T01:52:26.415Z,4.23
2019-04-25T01:54:56.224Z,4.03
2019-04-25T01:57:26.713Z,4.27
2019-04-25T01:59:56.296Z,4.33
2019-04-25T02:02:27.427Z,3.30
2019-04-25T02:04:57.987Z,2.53
2019-04-25T02:07:27.787Z,1.70
2019-04-25T02:09:57.361Z,2.43
2019-04-25T02:12:38.345Z,2.77
2019-04-25T02:15:07.723Z,4.90
2019-04-25T02:17:37.093Z,2.00
2019-04-25T02:20:06.430Z,2.13
2019-04-25T02:22:35.801Z,3.17
2019-04-25T02:25:05.286Z,3.40
2019-04-25T02:27:34.605Z,2.00
2019-04-25T02:30:06.759Z,1.63
2019-04-25T02:32:37.216Z,1.90
2019-04-25T02:35:09.518Z,5.50
2019-04-25T02:37:37.367Z,1.70
2019-04-25T02:40:08.461Z,1.80
2019-04-25T02:42:38.317Z,2.23
2019-04-25T02:45:27.758Z,1.57
2019-04-25T02:48:27.994Z,1.70
2019-04-25T02:51:05.462Z,2.80
2019-04-25T02:53:38.924Z,3.63
2019-04-25T02:56:26.127Z,4.10
2019-04-25T02:58:39.366Z,2.77
2019-04-25T03:01:17.903Z,2.77
2019-04-25T03:03:41.809Z,2.93
2019-04-25T03:06:11.104Z,3.60
2019-04-25T03:08:40.640Z,3.10
2019-04-25T03:11:10.025Z,1.97
2019-04-25T03:13:39.542Z,3.43
2019-04-25T03:16:10.903Z,3.10
2019-04-25T03:19:10.913Z,2.20
2019-04-25T03:21:41.281Z,3.17
2019-04-25T03:24:15.932Z,2.93
2019-04-25T03:26:41.616Z,5.00
2019-04-25T03:29:10.942Z,4.90
2019-04-25T03:31:40.249Z,4.17
2019-04-25T03:34:14.038Z,4.40
2019-04-25T03:36:40.659Z,3.43
2019-04-25T03:39:09.962Z,3.80
2019-04-25T03:41:39.255Z,3.10
2019-04-25T03:44:08.614Z,2.37
2019-04-25T03:46:37.915Z,2.47
2019-04-25T03:49:07.643Z,2.47
2019-04-25T03:51:37.256Z,2.33
2019-04-25T03:54:07.523Z,7.07
2019-04-25T03:56:37.674Z,2.33
2019-04-25T03:59:07.226Z,4.13
2019-04-25T04:01:36.898Z,4.07
2019-04-25T04:04:07.075Z,3.73
2019-04-25T04:06:37.321Z,2.87
2019-04-25T04:09:07.972Z,1.90
2019-04-25T04:11:37.518Z,3.83
2019-04-25T04:14:07.081Z,3.03
2019-04-25T04:16:39.540Z,3.40
2019-04-25T04:19:08.911Z,5.87
2019-04-25T04:21:50.550Z,5.67
2019-04-25T04:24:25.793Z,7.87
2019-04-25T04:27:09.141Z,9.47
2019-04-25T04:29:39.491Z,7.60
2019-04-25T04:32:08.787Z,7.27
2019-04-25T04:34:38.180Z,7.70
2019-04-25T04:37:07.618Z,7.37
2019-04-25T04:39:37.246Z,6.30
2019-04-25T04:42:07.543Z,8.90
2019-04-25T04:44:37.700Z,7.30
2019-04-25T04:47:08.433Z,5.53
2019-04-25T04:49:38.238Z,4.23
2019-04-25T04:52:08.296Z,4.73
2019-04-25T04:54:38.598Z,5.83
2019-04-25T04:57:18.493Z,6.00
2019-04-25T04:59:39.393Z,5.30
2019-04-25T05:02:19.596Z,7.20
2019-04-25T05:05:17.182Z,5.87
2019-04-25T05:07:55.823Z,7.57
2019-04-25T05:10:25.193Z,10.83
2019-04-25T05:12:54.724Z,7.47
2019-04-25T05:15:24.743Z,6.50
2019-04-25T05:17:54.667Z,4.97
2019-04-25T05:20:24.310Z,5.63
2019-04-25T05:22:54.940Z,2.70
2019-04-25T05:25:24.932Z,4.57
2019-04-25T05:28:00.796Z,5.73
2019-04-25T05:30:33.567Z,4.83
2019-04-25T05:33:03.972Z,2.10
2019-04-25T05:35:33.407Z,2.90
2019-04-25T05:38:03.421Z,3.00
2019-04-25T05:40:34.452Z,5.80
2019-04-25T05:43:10.011Z,2.70
2019-04-25T05:45:39.282Z,4.73
2019-04-25T05:48:09.171Z,4.07
2019-04-25T05:50:38.522Z,2.53
2019-04-25T05:53:09.032Z,3.47
2019-04-25T05:55:38.336Z,3.83
2019-04-25T05:58:07.650Z,1.90
2019-04-25T06:00:36.958Z,2.83
2019-04-25T06:03:06.248Z,2.53
2019-04-25T06:05:35.609Z,3.50
2019-04-25T06:08:04.930Z,3.23
2019-04-25T06:10:53.820Z,6.57
2019-04-25T06:13:51.058Z,2.67
2019-04-25T06:16:39.310Z,3.13
2019-04-25T06:19:26.480Z,2.47
2019-04-25T06:21:56.756Z,3.80
2019-04-25T06:24:32.795Z,1.97
2019-04-25T06:27:25.872Z,2.53
2019-04-25T06:30:17.694Z,3.37
2019-04-25T06:32:47.037Z,2.33
2019-04-25T06:35:16.351Z,4.27
2019-04-25T06:37:45.704Z,2.00
2019-04-25T06:40:15.945Z,5.07
2019-04-25T06:42:46.708Z,5.20
2019-04-25T06:45:44.164Z,8.93
2019-04-25T06:48:36.739Z,3.03
2019-04-25T06:51:06.201Z,1.70
2019-04-25T06:53:35.508Z,2.20
2019-04-25T06:56:06.280Z,1.83
2019-04-25T06:58:35.679Z,3.20
2019-04-25T07:01:05.020Z,3.07
2019-04-25T07:03:35.632Z,3.03
2019-04-25T07:06:05.587Z,3.23
2019-04-25T07:08:35.338Z,3.40
2019-04-25T07:11:04.860Z,4.00
2019-04-25T07:13:38.300Z,4.77
2019-04-25T07:16:05.286Z,4.97
2019-04-25T07:18:37.020Z,6.87
2019-04-25T07:21:05.648Z,6.10
2019-04-25T07:23:35.771Z,9.30
2019-04-25T07:26:13.456Z,5.90
2019-04-25T07:28:57.616Z,5.70
2019-04-25T07:31:58.096Z,6.27
2019-04-25T07:34:27.628Z,6.90
2019-04-25T07:36:56.915Z,7.63
2019-04-25T07:39:26.242Z,5.60
2019-04-25T07:41:55.543Z,6.83
2019-04-25T07:44:39.494Z,8.60
2019-04-25T07:46:55.992Z,10.90
2019-04-25T07:49:26.622Z,9.87
2019-04-25T07:51:56.382Z,12.57
2019-04-25T07:54:27.537Z,11.60
2019-04-25T07:56:57.770Z,11.50
2019-04-25T07:59:27.777Z,12.30
2019-04-25T08:01:57.597Z,14.90
2019-04-25T08:04:27.613Z,12.43
2019-04-25T08:06:57.084Z,10.83
2019-04-25T08:09:27.381Z,13.60
2019-04-25T08:11:57.389Z,12.93
2019-04-25T08:14:34.184Z,14.90
2019-04-25T08:17:05.389Z,16.20
2019-04-25T08:19:35.570Z,14.27
2019-04-25T08:22:05.334Z,15.30
2019-04-25T08:24:37.101Z,14.67
2019-04-25T08:27:06.942Z,14.77
2019-04-25T08:29:38.053Z,14.60
2019-04-25T08:32:07.380Z,13.03
2019-04-25T08:34:37.320Z,16.20
2019-04-25T08:37:17.468Z,15.70
2019-04-25T08:39:38.770Z,17.57
2019-04-25T08:42:08.882Z,17.40
2019-04-25T08:44:39.160Z,13.83
2019-04-25T08:47:08.625Z,11.00
2019-04-25T08:50:03.663Z,15.20
2019-04-25T08:52:35.173Z,11.93
2019-04-25T08:55:14.235Z,12.03
2019-04-25T08:58:03.761Z,16.57
2019-04-25T09:01:04.986Z,13.27
2019-04-25T09:03:42.191Z,11.10
2019-04-25T09:06:13.600Z,12.43
2019-04-25T09:08:45.372Z,13.27
2019-04-25T09:11:14.128Z,11.97
2019-04-25T09:13:44.947Z,15.00
2019-04-25T09:16:15.526Z,13.17
2019-04-25T09:18:45.605Z,15.20
2019-04-25T09:21:15.760Z,13.33
2019-04-25T09:23:45.114Z,13.60
2019-04-25T09:26:14.493Z,16.40
2019-04-25T09:28:45.508Z,16.00
2019-04-25T09:31:14.842Z,14.03
2019-04-25T09:33:45.797Z,16.87
2019-04-25T09:36:15.222Z,22.57
2019-04-25T09:38:47.983Z,18.43
2019-04-25T09:41:15.624Z,17.27
2019-04-25T09:43:46.020Z,26.07
2019-04-25T09:46:21.502Z,17.83
2019-04-25T09:49:04.147Z,18.30
2019-04-25T09:51:55.941Z,16.40
2019-04-25T09:54:45.123Z,23.20
2019-04-25T09:57:43.341Z,21.97
2019-04-25T10:00:30.272Z,18.83
2019-04-25T10:02:59.828Z,25.13
2019-04-25T10:05:29.184Z,24.80
2019-04-25T10:07:58.573Z,33.40
2019-04-25T10:10:28.204Z,24.07
2019-04-25T10:12:57.542Z,25.03
2019-04-25T10:15:54.578Z,24.67
2019-04-25T10:18:24.139Z,30.50
2019-04-25T10:20:54.229Z,30.43
2019-04-25T10:23:24.108Z,26.90
2019-04-25T10:25:53.889Z,26.03
2019-04-25T10:28:23.644Z,23.20
2019-04-25T10:30:53.070Z,24.03
2019-04-25T10:33:26.460Z,29.60
2019-04-25T10:35:59.484Z,25.43
2019-04-25T10:38:28.624Z,30.07
2019-04-25T10:40:58.367Z,24.03
2019-04-25T10:43:27.826Z,27.20
2019-04-25T10:45:57.248Z,26.47
2019-04-25T10:48:26.622Z,24.00
2019-04-25T10:50:56.025Z,24.63
2019-04-25T10:53:25.434Z,23.70
2019-04-25T10:55:54.735Z,32.00
2019-04-25T10:58:24.033Z,26.93
2019-04-25T11:00:54.073Z,30.27
2019-04-25T11:03:48.415Z,23.30
2019-04-25T11:06:23.323Z,28.60
2019-04-25T11:08:55.440Z,27.90
2019-04-25T11:11:24.182Z,26.63
2019-04-25T11:13:57.507Z,23.33
2019-04-25T11:16:26.878Z,30.73
2019-04-25T11:18:56.621Z,27.77
2019-04-25T11:21:26.024Z,30.37
2019-04-25T11:23:55.586Z,27.00
2019-04-25T11:26:25.968Z,27.27
2019-04-25T11:28:55.316Z,26.63
2019-04-25T11:31:29.234Z,31.40
2019-04-25T11:33:58.576Z,29.53
2019-04-25T11:36:28.160Z,36.50
2019-04-25T11:39:34.696Z,31.87
2019-04-25T11:42:09.726Z,30.50
2019-04-25T11:44:39.272Z,32.37
2019-04-25T11:47:08.805Z,34.17
2019-04-25T11:49:38.628Z,28.53
2019-04-25T11:52:08.973Z,30.33
2019-04-25T11:54:38.416Z,28.47
2019-04-25T11:57:07.775Z,29.00
2019-04-25T11:59:38.266Z,29.43
2019-04-25T12:02:10.537Z,31.67
2019-04-25T12:04:39.845Z,33.67
2019-04-25T12:07:09.600Z,36.37
2019-04-25T12:09:39.058Z,37.10
2019-04-25T12:12:08.410Z,36.37
2019-04-25T12:14:37.724Z,34.50
2019-04-25T12:17:07.004Z,36.83
2019-04-25T12:19:37.994Z,34.80
2019-04-25T12:22:07.440Z,35.67
2019-04-25T12:24:36.763Z,36.67
2019-04-25T12:27:06.034Z,34.00
2019-04-25T12:29:35.320Z,34.80
2019-04-25T12:32:05.233Z,36.37
2019-04-25T12:34:34.606Z,35.67
2019-04-25T12:37:04.045Z,26.13
2019-04-25T12:39:34.158Z,38.43
2019-04-25T12:42:04.423Z,27.70
2019-04-25T12:44:54.644Z,34.63
2019-04-25T12:47:25.736Z,33.60
2019-04-25T12:49:56.049Z,32.67
2019-04-25T12:52:25.699Z,28.63
2019-04-25T12:54:57.083Z,40.90
2019-04-25T12:57:26.601Z,37.70
2019-04-25T12:59:55.908Z,35.47
2019-04-25T13:02:25.325Z,27.47
2019-04-25T13:04:55.521Z,33.67
2019-04-25T13:07:25.135Z,27.07
2019-04-25T13:09:55.345Z,30.90
2019-04-25T13:12:25.044Z,32.60
2019-04-25T13:14:54.369Z,26.80
2019-04-25T13:17:24.177Z,26.77
2019-04-25T13:19:54.401Z,25.70
2019-04-25T13:22:24.100Z,29.90
2019-04-25T13:24:53.525Z,29.90
2019-04-25T13:27:44.628Z,30.90
2019-04-25T13:30:24.160Z,30.33
2019-04-25T13:33:08.570Z,35.77
2019-04-25T13:35:44.765Z,30.23
2019-04-25T13:38:14.972Z,33.63
2019-04-25T13:40:44.528Z,34.77
2019-04-25T13:43:13.848Z,31.87
2019-04-25T13:45:43.133Z,26.67
2019-04-25T13:48:13.222Z,36.00
2019-04-25T13:50:44.345Z,28.53
2019-04-25T13:53:13.747Z,30.03
2019-04-25T13:55:43.184Z,28.97
2019-04-25T13:58:14.344Z,30.40
2019-04-25T14:00:44.463Z,31.93
2019-04-25T14:03:13.794Z,32.27
2019-04-25T14:05:43.908Z,34.13
2019-04-25T14:08:14.893Z,29.10
2019-04-25T14:10:44.423Z,32.27
2019-04-25T14:13:13.953Z,21.97
2019-04-25T14:15:48.705Z,31.57
2019-04-25T14:18:35.606Z,32.63
2019-04-25T14:21:24.901Z,29.07
2019-04-25T14:23:54.920Z,27.90
2019-04-25T14:26:25.046Z,28.40
2019-04-25T14:28:54.508Z,22.43
2019-04-25T14:31:39.336Z,27.70
2019-04-25T14:33:56.244Z,23.40
2019-04-25T14:36:26.451Z,27.43
2019-04-25T14:38:56.562Z,25.47
2019-04-25T14:41:26.097Z,21.53
2019-04-25T14:43:55.585Z,25.53
2019-04-25T14:46:26.367Z,22.37
2019-04-25T14:48:56.086Z,21.57
2019-04-25T14:51:26.137Z,23.50
2019-04-25T14:53:56.622Z,30.77
2019-04-25T14:56:34.521Z,28.97
2019-04-25T14:59:04.415Z,21.07
2019-04-25T15:01:44.065Z,22.53
2019-04-25T15:04:04.849Z,26.23
2019-04-25T15:06:34.248Z,23.60
2019-04-25T15:09:03.658Z,22.93
2019-04-25T15:11:33.576Z,27.67
2019-04-25T15:14:03.140Z,24.70
2019-04-25T15:16:33.380Z,24.47
2019-04-25T15:19:03.069Z,22.93
2019-04-25T15:21:32.353Z,28.00
2019-04-25T15:24:01.705Z,28.63
2019-04-25T15:26:31.189Z,24.00
2019-04-25T15:29:00.545Z,23.17
2019-04-25T15:31:30.297Z,23.53
2019-04-25T15:34:02.265Z,21.27
2019-04-25T15:36:46.144Z,20.50
2019-04-25T15:39:43.402Z,15.80
2019-04-25T15:42:34.712Z,20.87
2019-04-25T15:45:23.292Z,16.70
2019-04-25T15:47:53.240Z,23.00
2019-04-25T15:50:22.562Z,20.90
2019-04-25T15:52:52.464Z,17.90
2019-04-25T15:55:21.797Z,15.97
2019-04-25T15:57:51.133Z,19.60
2019-04-25T16:00:26.990Z,16.87
2019-04-25T16:02:56.410Z,16.20
2019-04-25T16:05:26.618Z,18.67
2019-04-25T16:07:56.161Z,17.80
2019-04-25T16:10:25.620Z,17.37
2019-04-25T16:12:54.923Z,20.27
2019-04-25T16:15:24.200Z,19.30
2019-04-25T16:17:53.523Z,17.40
2019-04-25T16:20:22.846Z,13.63
2019-04-25T16:22:52.226Z,15.30
2019-04-25T16:25:21.597Z,17.17
2019-04-25T16:27:50.903Z,16.77
2019-04-25T16:30:22.508Z,20.40
2019-04-25T16:32:51.853Z,16.90
2019-04-25T16:35:21.216Z,22.10
2019-04-25T16:37:50.524Z,21.63
2019-04-25T16:40:19.863Z,26.90
2019-04-25T16:42:49.395Z,25.90
2019-04-25T16:45:18.710Z,26.97
2019-04-25T16:47:48.011Z,23.57
2019-04-25T16:50:19.000Z,28.83
2019-04-25T16:52:48.334Z,29.50
2019-04-25T16:55:18.227Z,30.27
2019-04-25T16:57:47.588Z,21.23
2019-04-25T17:00:55.000Z,26.00
2019-04-25T17:03:27.065Z,25.30
2019-04-25T17:05:56.521Z,25.20
2019-04-25T17:08:25.969Z,27.80
2019-04-25T17:10:55.287Z,25.67
2019-04-25T17:13:26.305Z,26.77
2019-04-25T17:16:07.295Z,30.03
2019-04-25T17:18:58.405Z,27.03
2019-04-25T17:21:28.368Z,27.00
2019-04-25T17:23:57.783Z,26.40
2019-04-25T17:26:27.109Z,33.27
2019-04-25T17:28:58.767Z,29.83
2019-04-25T17:31:38.924Z,35.27
2019-04-25T17:34:16.619Z,31.33
2019-04-25T17:36:55.498Z,29.73
2019-04-25T17:39:43.752Z,27.17
2019-04-25T17:42:13.071Z,27.87
2019-04-25T17:44:42.594Z,32.40
2019-04-25T17:47:12.176Z,28.37
2019-04-25T17:49:42.324Z,31.27
2019-04-25T17:52:12.077Z,30.13
2019-04-25T17:54:41.403Z,29.50
2019-04-25T17:57:10.702Z,29.47
2019-04-25T17:59:40.040Z,26.13
2019-04-25T18:02:09.427Z,26.07
2019-04-25T18:04:38.787Z,34.03
2019-04-25T18:07:08.547Z,33.93
2019-04-25T18:09:38.679Z,32.60
2019-04-25T18:12:08.202Z,31.17
2019-04-25T18:14:38.456Z,36.33
2019-04-25T18:17:27.169Z,34.57
2019-04-25T18:20:01.689Z,33.13
2019-04-25T18:22:58.926Z,34.30
2019-04-25T18:25:59.430Z,36.73
2019-04-25T18:28:39.473Z,35.57
2019-04-25T18:31:09.564Z,37.17
2019-04-25T18:33:39.331Z,32.23
2019-04-25T18:36:24.490Z,31.20
2019-04-25T18:39:12.754Z,32.20
2019-04-25T18:41:46.999Z,38.27
2019-04-25T18:44:16.343Z,31.67
2019-04-25T18:46:47.239Z,35.30
2019-04-25T18:49:16.786Z,33.53
2019-04-25T18:51:56.445Z,27.37
2019-04-25T18:54:41.997Z,34.13
2019-04-25T18:57:21.973Z,33.43
2019-04-25T19:00:00.132Z,35.53
2019-04-25T19:02:59.674Z,33.87
2019-04-25T19:05:56.928Z,26.70
2019-04-25T19:08:26.312Z,30.87
2019-04-25T19:10:55.697Z,25.37
2019-04-25T19:13:25.088Z,23.87
2019-04-25T19:15:54.421Z,28.80
2019-04-25T19:18:23.755Z,23.40
2019-04-25T19:20:53.208Z,34.20
2019-04-25T19:23:22.507Z,22.97
2019-04-25T19:25:52.155Z,22.47
2019-04-25T19:28:21.913Z,22.37
2019-04-25T19:30:51.429Z,17.90
2019-04-25T19:33:34.762Z,17.97
2019-04-25T19:35:53.700Z,21.63
2019-04-25T19:38:23.226Z,21.57
2019-04-25T19:41:08.152Z,19.93
2019-04-25T19:43:53.780Z,14.50
2019-04-25T19:46:37.409Z,15.27
2019-04-25T19:49:07.206Z,15.97
2019-04-25T19:51:36.543Z,10.43
2019-04-25T19:54:06.986Z,15.33
2019-04-25T19:56:36.398Z,12.43
2019-04-25T19:59:06.143Z,14.97
2019-04-25T20:01:35.497Z,11.20
2019-04-25T20:04:29.771Z,19.10
2019-04-25T20:07:37.255Z,17.23
2019-04-25T20:10:24.763Z,9.40
2019-04-25T20:12:55.019Z,9.90
2019-04-25T20:15:24.408Z,14.97
2019-04-25T20:17:54.225Z,16.53
2019-04-25T20:20:23.981Z,12.37
2019-04-25T20:22:54.376Z,10.07
2019-04-25T20:25:24.097Z,11.33
2019-04-25T20:27:53.381Z,12.33
2019-04-25T20:30:23.660Z,11.63
2019-04-25T20:32:53.628Z,14.87
2019-04-25T20:35:23.172Z,12.87
2019-04-25T20:37:53.392Z,14.03
2019-04-25T20:40:22.932Z,13.47
2019-04-25T20:42:52.262Z,12.00
2019-04-25T20:45:21.920Z,17.83
2019-04-25T20:47:52.071Z,11.93
2019-04-25T20:50:21.761Z,12.43
2019-04-25T20:52:51.178Z,11.63
2019-04-25T20:55:20.568Z,12.80
2019-04-25T20:57:49.861Z,11.23
2019-04-25T21:00:40.173Z,12.87
2019-04-25T21:03:10.060Z,11.23
2019-04-25T21:05:39.439Z,13.53
2019-04-25T21:08:08.784Z,12.73
2019-04-25T21:10:38.151Z,12.87
2019-04-25T21:13:10.614Z,12.23
2019-04-25T21:16:02.628Z,10.73
2019-04-25T21:18:47.697Z,11.20
2019-04-25T21:21:17.088Z,17.10
2019-04-25T21:23:46.468Z,10.93
2019-04-25T21:26:15.814Z,8.90
2019-04-25T21:28:45.282Z,10.07
2019-04-25T21:31:14.650Z,11.93
2019-04-25T21:33:44.043Z,15.17
2019-04-25T21:36:13.626Z,13.40
2019-04-25T21:38:43.241Z,13.57
2019-04-25T21:41:34.995Z,13.17
2019-04-25T21:44:05.940Z,11.70
2019-04-25T21:46:35.691Z,11.57
2019-04-25T21:49:05.586Z,15.47
2019-04-25T21:51:34.919Z,10.80
2019-04-25T21:54:04.592Z,12.23
2019-04-25T21:56:34.490Z,11.53
2019-04-25T21:59:04.141Z,10.77
2019-04-25T22:01:37.177Z,13.67
2019-04-25T22:04:06.632Z,14.40
2019-04-25T22:06:36.522Z,17.53
2019-04-25T22:09:10.364Z,14.47
2019-04-25T22:11:39.742Z,13.33
2019-04-25T22:14:10.013Z,13.57
2019-04-25T22:16:39.916Z,15.53
2019-04-25T22:19:11.100Z,14.03
2019-04-25T22:21:40.618Z,12.37
2019-04-25T22:24:14.241Z,17.20
2019-04-25T22:26:41.948Z,16.77
2019-04-25T22:29:11.695Z,11.63
2019-04-25T22:31:49.022Z,10.40
2019-04-25T22:34:30.210Z,10.63
2019-04-25T22:36:59.897Z,10.10
2019-04-25T22:39:29.461Z,13.97
2019-04-25T22:41:59.542Z,10.03
2019-04-25T22:44:30.098Z,10.17
2019-04-25T22:47:00.825Z,13.20
2019-04-25T22:49:30.224Z,13.90
2019-04-25T22:52:00.575Z,15.83
2019-04-25T22:54:31.047Z,11.30
2019-04-25T22:57:01.781Z,12.87
2019-04-25T22:59:31.439Z,12.50
2019-04-25T23:02:18.558Z,11.47
2019-04-25T23:05:12.923Z,9.30
2019-04-25T23:07:39.409Z,10.57
2019-04-25T23:10:10.321Z,11.30
2019-04-25T23:12:40.092Z,10.23
2019-04-25T23:15:09.496Z,12.10
2019-04-25T23:17:38.892Z,9.57
2019-04-25T23:20:09.586Z,8.87
2019-04-25T23:22:39.173Z,10.53
2019-04-25T23:25:11.916Z,12.27
2019-04-25T23:28:03.620Z,9.60
2019-04-25T23:30:38.756Z,14.17
2019-04-25T23:33:08.507Z,10.70
2019-04-25T23:35:38.944Z,10.73
2019-04-25T23:38:10.808Z,10.73
2019-04-25T23:40:39.745Z,11.50
2019-04-25T23:43:09.590Z,16.63
2019-04-25T23:45:38.996Z,15.43
2019-04-25T23:48:08.706Z,12.23
2019-04-25T23:50:38.021Z,17.00
2019-04-25T23:53:08.075Z,16.87
2019-04-25T23:55:38.339Z,16.23
2019-04-25T23:58:08.690Z,16.73
